Glencoe Municipal Airport


Codes: KGYL/
Name: Glencoe Municipal Airport
City: Glencoe
Country: United States
Elevation: 992 ft.

Photos at Glencoe Municipal Airport


   Photos courtesy of SpottingLog. You can add your own sightings and photos by signing up for a free trial today.



No photos found.

Weather at Glencoe Municipal Airport


Time (UTC)DescriptionTempratureWindCloud coverageVisibilityPressureHumidity
21-Feb-2024 03:00Clear Sky0°C4 mph, NW0%10000m1016hPa86%
21-Feb-2024 06:00Few Clouds0°C2 mph, N19%10000m1016hPa79%
21-Feb-2024 09:00Clear Sky0°C4 mph, N0%10000m1015hPa72%
21-Feb-2024 12:00Clear Sky-0°C2 mph, N6%10000m1014hPa69%
21-Feb-2024 15:00Broken Clouds2°C2 mph, S67%10000m1014hPa61%
21-Feb-2024 18:00Broken Clouds6°C4 mph, SW84%10000m1012hPa51%
21-Feb-2024 21:00Overcast Clouds7°C4 mph, SW100%10000m1010hPa59%
22-Feb-2024 00:00Overcast Clouds4°C2 mph, SW100%10000m1009hPa73%
22-Feb-2024 03:00Overcast Clouds4°C2 mph, SW95%10000m1009hPa76%
22-Feb-2024 06:00Overcast Clouds3°C4 mph, W96%10000m1009hPa79%
22-Feb-2024 09:00Overcast Clouds2°C7 mph, W95%10000m1009hPa84%
22-Feb-2024 12:00Broken Clouds1°C7 mph, NW64%10000m1009hPa88%
22-Feb-2024 15:00Clear Sky3°C11 mph, NW2%10000m1010hPa83%
22-Feb-2024 18:00Clear Sky6°C13 mph, NW6%10000m1010hPa63%
22-Feb-2024 21:00Clear Sky7°C16 mph, NW6%10000m1009hPa57%
23-Feb-2024 00:00Clear Sky5°C11 mph, NW6%10000m1010hPa65%
23-Feb-2024 03:00Clear Sky3°C9 mph, W9%10000m1010hPa69%
23-Feb-2024 06:00Clear Sky1°C7 mph, NW8%10000m1011hPa77%
23-Feb-2024 09:00Clear Sky-0°C7 mph, NW1%10000m1011hPa84%
23-Feb-2024 12:00Clear Sky-1°C7 mph, NW9%10000m1012hPa84%
23-Feb-2024 15:00Overcast Clouds0°C7 mph, N91%10000m1012hPa70%
23-Feb-2024 18:00Overcast Clouds2°C9 mph, N95%10000m1013hPa61%
23-Feb-2024 21:00Overcast Clouds1°C13 mph, N100%10000m1014hPa62%
24-Feb-2024 00:00Overcast Clouds-1°C7 mph, NW98%10000m1015hPa67%
24-Feb-2024 03:00Few Clouds-2°C7 mph, NE17%10000m1017hPa59%
24-Feb-2024 06:00Clear Sky-3°C4 mph, NE9%10000m1018hPa48%
24-Feb-2024 09:00Clear Sky-3°C2 mph, S0%10000m1018hPa43%
24-Feb-2024 12:00Clear Sky-3°C7 mph, S0%10000m1017hPa51%
24-Feb-2024 15:00Clear Sky-1°C13 mph, SW0%10000m1015hPa58%
24-Feb-2024 18:00Clear Sky5°C16 mph, SW1%10000m1011hPa51%
24-Feb-2024 21:00Few Clouds8°C16 mph, SW12%10000m1006hPa52%
25-Feb-2024 00:00Few Clouds6°C13 mph, SW23%10000m1004hPa65%
25-Feb-2024 03:00Clear Sky4°C9 mph, SW9%10000m1004hPa79%
25-Feb-2024 06:00Broken Clouds3°C9 mph, SW54%10000m1003hPa79%
25-Feb-2024 09:00Overcast Clouds1°C9 mph, NW87%10000m1004hPa81%
25-Feb-2024 12:00Overcast Clouds0°C7 mph, NW92%10000m1006hPa78%
25-Feb-2024 15:00Overcast Clouds2°C9 mph, NW100%10000m1008hPa60%
25-Feb-2024 18:00Overcast Clouds6°C11 mph, NW92%10000m1008hPa38%
25-Feb-2024 21:00Scattered Clouds7°C9 mph, NW37%10000m1008hPa38%
26-Feb-2024 00:00Scattered Clouds4°C4 mph, NW27%10000m1010hPa50%